Annapolis, Washington
Current Conditions -  °F | °C
As of 7:55 AM on Thursday 23 Oct 2014 (Local Time) from KPWT Reporting Station
Broken Clouds Broken Clouds  
Wind Chill: 50°   Ceiling: 5500
Heat Index: 50°   Visibility: 10mi
Dew Point: 48°   Wind: 6mph
Humidity: 94%   Direction: 160°SSE
Pressure: 29.73"   Gusts: NA
Location:  47.5378°N, 122.589°W
Report Text: KPWT 231455Z AUTO 16005KT 10SM SCT048 BKN055 BKN100 10/09 A2973 RMK AO1 P0001 60003 52003
Loading
Personal Weather Stations






























Interactive Weather Map New forecast layout! Learn more

10-Day Weather Forecast

Advertisements
Track Severe Weather on mobile